Time;durP1;ratioP1;P1;durP2;ratioP2;P2;SDS_P1;SDS_P2;PMS_P1;PMS_P2;Temp;Humidity;BMP_temperature;BMP_pressure;BME280_temperature;BME280_humidity;BME280_pressure;Samples;Min_cycle;Max_cycle;Signal;HPM_P1;HPM_P2
2022/07/15 00:02:05;;;;;;;13.43;1.98;;;;;;;;;;5089145;28;20033;-76
2022/07/15 00:04:31;;;;;;;19.23;2.55;;;;;;;;;;5090524;28;20028;-76
2022/07/15 00:06:57;;;;;;;13.43;2.10;;;;;;;;;;5078925;28;20032;-77
2022/07/15 00:10:13;;;;;;;18.80;2.03;;;;;;;;;;5083287;28;20047;-76
2022/07/15 00:12:09;;;;;;;15.15;2.33;;;;;;;;;;5080338;28;20040;-77
2022/07/15 00:14:35;;;;;;;16.30;2.45;;;;;;;;;;5077095;28;20033;-76
2022/07/15 00:17:01;;;;;;;14.20;2.03;;;;;;;;;;5083143;28;20046;-76
2022/07/15 00:19:27;;;;;;;14.70;2.10;;;;;;;;;;5081628;28;20020;-77
2022/07/15 00:21:53;;;;;;;17.45;2.17;;;;;;;;;;5077234;28;20024;-76
2022/07/15 00:24:19;;;;;;;10.73;2.08;;;;;;;;;;5078736;28;20381;-77
2022/07/15 00:26:45;;;;;;;17.95;2.30;;;;;;;;;;5075484;28;20074;-76
2022/07/15 00:29:11;;;;;;;18.13;2.22;;;;;;;;;;5076267;28;20028;-78
2022/07/15 00:31:37;;;;;;;15.82;2.13;;;;;;;;;;5078000;28;20094;-77
2022/07/15 00:34:03;;;;;;;14.05;2.10;;;;;;;;;;5076086;28;20100;-77
2022/07/15 00:36:29;;;;;;;10.55;2.00;;;;;;;;;;5078364;28;20051;-76
2022/07/15 00:38:57;;;;;;;13.00;2.05;;;;;;;;;;5076777;28;20074;-76
2022/07/15 00:41:23;;;;;;;15.88;2.55;;;;;;;;;;5080632;28;20017;-78
2022/07/15 00:43:49;;;;;;;11.55;2.17;;;;;;;;;;5081331;28;20337;-76
2022/07/15 00:46:21;;;;;;;10.88;2.03;;;;;;;;;;5078644;28;20034;-77
2022/07/15 00:48:48;;;;;;;13.23;2.33;;;;;;;;;;5080991;28;20028;-77
2022/07/15 00:51:14;;;;;;;12.40;1.80;;;;;;;;;;5081645;28;20436;-77
2022/07/15 00:53:40;;;;;;;12.98;2.30;;;;;;;;;;5078389;28;20036;-77
2022/07/15 00:56:09;;;;;;;16.13;2.63;;;;;;;;;;5077564;28;20067;-76
2022/07/15 00:58:40;;;;;;;18.70;2.28;;;;;;;;;;5078787;28;20105;-77
2022/07/15 01:01:07;;;;;;;10.05;1.80;;;;;;;;;;5078619;28;20021;-76
2022/07/15 01:03:33;;;;;;;10.35;1.77;;;;;;;;;;5080855;28;20051;-78
2022/07/15 01:06:00;;;;;;;10.07;1.67;;;;;;;;;;5080841;28;20024;-77
2022/07/15 01:08:26;;;;;;;11.70;1.80;;;;;;;;;;5087811;28;20084;-76
2022/07/15 01:10:52;;;;;;;14.00;2.10;;;;;;;;;;5089209;28;20047;-76
2022/07/15 01:13:19;;;;;;;13.00;1.73;;;;;;;;;;5089564;28;20020;-77
2022/07/15 01:15:45;;;;;;;9.77;1.58;;;;;;;;;;5091960;28;20025;-77
2022/07/15 01:18:11;;;;;;;9.77;1.92;;;;;;;;;;5089926;28;20123;-76
2022/07/15 01:20:46;;;;;;;16.42;2.40;;;;;;;;;;5075615;28;20050;-77
2022/07/15 01:23:12;;;;;;;8.45;1.77;;;;;;;;;;5073717;28;20021;-77
2022/07/15 01:25:39;;;;;;;7.93;1.50;;;;;;;;;;5074496;28;20028;-77
2022/07/15 01:28:06;;;;;;;10.63;1.80;;;;;;;;;;5082527;28;20025;-77
2022/07/15 01:30:32;;;;;;;7.47;1.40;;;;;;;;;;5078056;28;20039;-77
2022/07/15 01:32:58;;;;;;;13.90;1.88;;;;;;;;;;5076015;28;20029;-77
2022/07/15 01:35:24;;;;;;;12.60;1.83;;;;;;;;;;5075311;28;20098;-77
2022/07/15 01:37:50;;;;;;;9.43;1.98;;;;;;;;;;5075597;28;20017;-78
2022/07/15 01:40:16;;;;;;;10.50;2.20;;;;;;;;;;5075987;28;20028;-76
2022/07/15 01:42:43;;;;;;;14.75;2.45;;;;;;;;;;5075202;28;20046;-77
2022/07/15 01:45:10;;;;;;;17.83;2.05;;;;;;;;;;5079939;28;20077;-76
2022/07/15 01:47:43;;;;;;;9.15;2.00;;;;;;;;;;5078178;28;20036;-77
2022/07/15 01:50:09;;;;;;;12.70;1.83;;;;;;;;;;5077021;28;20024;-77
2022/07/15 01:52:35;;;;;;;17.67;2.00;;;;;;;;;;5075652;28;20039;-77
2022/07/15 01:55:01;;;;;;;11.25;2.03;;;;;;;;;;5076654;28;20025;-76
2022/07/15 01:57:27;;;;;;;10.15;1.52;;;;;;;;;;5076397;28;20021;-76
2022/07/15 01:59:53;;;;;;;17.35;2.08;;;;;;;;;;5076445;28;20115;-76
2022/07/15 02:02:19;;;;;;;8.55;1.60;;;;;;;;;;5075555;28;20025;-77
2022/07/15 02:04:45;;;;;;;13.30;1.83;;;;;;;;;;5078158;28;20085;-76
2022/07/15 02:07:11;;;;;;;12.02;1.63;;;;;;;;;;5075887;28;20103;-78
2022/07/15 02:09:37;;;;;;;13.88;1.92;;;;;;;;;;5075232;28;20032;-77
2022/07/15 02:12:03;;;;;;;9.27;1.58;;;;;;;;;;5075779;28;20033;-77
2022/07/15 02:14:29;;;;;;;8.07;1.30;;;;;;;;;;5075885;28;20098;-77
2022/07/15 02:16:55;;;;;;;9.02;1.50;;;;;;;;;;5078175;28;20084;-77
2022/07/15 02:19:21;;;;;;;9.13;1.50;;;;;;;;;;5079824;28;20397;-77
2022/07/15 02:21:47;;;;;;;7.45;1.30;;;;;;;;;;5079878;28;20024;-78
2022/07/15 02:24:13;;;;;;;9.20;1.10;;;;;;;;;;5078297;28;20025;-77
2022/07/15 02:26:40;;;;;;;9.23;1.70;;;;;;;;;;5079293;28;20025;-77
2022/07/15 02:29:06;;;;;;;20.33;5.88;;;;;;;;;;5082687;28;20017;-77
2022/07/15 02:31:32;;;;;;;12.93;1.58;;;;;;;;;;5088741;28;20031;-76
2022/07/15 02:33:58;;;;;;;9.55;1.05;;;;;;;;;;5086247;28;20028;-76
2022/07/15 02:36:24;;;;;;;10.85;1.35;;;;;;;;;;5085836;28;20024;-77
2022/07/15 02:38:50;;;;;;;9.68;1.38;;;;;;;;;;5086453;28;20042;-76
2022/07/15 02:41:16;;;;;;;8.88;1.88;;;;;;;;;;5086282;28;20024;-76
2022/07/15 02:43:43;;;;;;;12.23;1.40;;;;;;;;;;5073123;28;20025;-76
2022/07/15 02:46:09;;;;;;;9.75;1.88;;;;;;;;;;5066165;28;20047;-76
2022/07/15 02:48:36;;;;;;;8.80;1.55;;;;;;;;;;5069517;28;20048;-76
2022/07/15 02:51:02;;;;;;;9.60;1.48;;;;;;;;;;5068619;28;20103;-76
2022/07/15 02:53:28;;;;;;;5.80;1.40;;;;;;;;;;5061673;28;20103;-78
2022/07/15 02:55:55;;;;;;;9.27;1.83;;;;;;;;;;5058316;28;20052;-75
2022/07/15 02:58:22;;;;;;;6.80;1.05;;;;;;;;;;5059761;28;20025;-77
2022/07/15 03:00:49;;;;;;;10.70;1.70;;;;;;;;;;5057498;28;20048;-76
2022/07/15 03:03:15;;;;;;;9.90;1.50;;;;;;;;;;5057418;28;20021;-76
2022/07/15 03:05:42;;;;;;;14.80;1.95;;;;;;;;;;5057125;28;20154;-76
2022/07/15 03:08:07;;;;;;;16.20;1.90;;;;;;;;;;5058014;28;20061;-77
2022/07/15 03:10:33;;;;;;;7.55;1.40;;;;;;;;;;5058617;28;20082;-77
2022/07/15 03:12:59;;;;;;;5.78;1.30;;;;;;;;;;5057588;28;20120;-76
2022/07/15 03:15:26;;;;;;;10.52;1.50;;;;;;;;;;5056896;28;20033;-78
2022/07/15 03:17:51;;;;;;;7.78;1.50;;;;;;;;;;5056939;28;20025;-76
2022/07/15 03:20:17;;;;;;;5.72;1.35;;;;;;;;;;5057786;28;20100;-76
2022/07/15 03:22:43;;;;;;;14.32;2.17;;;;;;;;;;5058465;28;20040;-75
2022/07/15 03:25:09;;;;;;;12.43;2.10;;;;;;;;;;5058305;28;20029;-76
2022/07/15 03:27:35;;;;;;;8.45;1.50;;;;;;;;;;5061333;28;20032;-77
2022/07/15 03:30:02;;;;;;;14.40;1.98;;;;;;;;;;5064889;28;20059;-77
2022/07/15 03:32:28;;;;;;;10.65;2.00;;;;;;;;;;5066743;28;20042;-77
2022/07/15 03:34:56;;;;;;;11.20;1.88;;;;;;;;;;5068585;28;20029;-75
2022/07/15 03:37:22;;;;;;;11.68;1.67;;;;;;;;;;5070385;28;20017;-77
2022/07/15 03:39:48;;;;;;;12.93;1.65;;;;;;;;;;5062849;28;20099;-77
2022/07/15 03:42:14;;;;;;;11.93;1.73;;;;;;;;;;5057512;28;20524;-78
2022/07/15 03:44:40;;;;;;;11.63;1.55;;;;;;;;;;5059389;28;20470;-77
2022/07/15 03:47:07;;;;;;;8.57;1.30;;;;;;;;;;5059111;28;20108;-76
2022/07/15 03:49:33;;;;;;;11.43;1.80;;;;;;;;;;5061984;28;20028;-78
2022/07/15 03:51:59;;;;;;;6.97;1.58;;;;;;;;;;5059569;28;20025;-77
2022/07/15 03:54:25;;;;;;;14.85;1.95;;;;;;;;;;5066298;28;20029;-76
2022/07/15 03:56:51;;;;;;;10.63;1.80;;;;;;;;;;5062642;28;20032;-78
2022/07/15 03:59:20;;;;;;;12.45;1.70;;;;;;;;;;5060414;28;20433;-78
2022/07/15 04:01:47;;;;;;;12.45;1.30;;;;;;;;;;5059652;28;20024;-76
2022/07/15 04:04:13;;;;;;;10.00;1.60;;;;;;;;;;5063835;28;20016;-76
2022/07/15 04:06:39;;;;;;;15.25;1.50;;;;;;;;;;5066608;28;20101;-77
2022/07/15 04:09:05;;;;;;;8.23;1.77;;;;;;;;;;5062421;28;20040;-78
2022/07/15 04:11:31;;;;;;;6.28;1.52;;;;;;;;;;5063745;28;20027;-79
2022/07/15 04:13:58;;;;;;;11.27;1.30;;;;;;;;;;5064048;28;20017;-78
2022/07/15 04:16:24;;;;;;;9.18;1.55;;;;;;;;;;5056968;28;20482;-78
2022/07/15 04:18:51;;;;;;;10.55;1.88;;;;;;;;;;5057685;28;20036;-77
2022/07/15 04:21:17;;;;;;;9.57;1.38;;;;;;;;;;5055590;28;20013;-78
2022/07/15 04:23:43;;;;;;;9.13;1.55;;;;;;;;;;5057909;28;20032;-78
2022/07/15 04:26:09;;;;;;;6.32;1.10;;;;;;;;;;5058295;28;20029;-77
2022/07/15 04:28:35;;;;;;;10.73;1.88;;;;;;;;;;5060830;28;20039;-76
2022/07/15 04:31:01;;;;;;;13.45;1.83;;;;;;;;;;5058363;28;20432;-75
2022/07/15 04:33:27;;;;;;;12.35;1.50;;;;;;;;;;5055578;28;20179;-77
2022/07/15 04:35:54;;;;;;;11.90;1.65;;;;;;;;;;5055946;28;20031;-76
2022/07/15 04:38:20;;;;;;;10.38;1.70;;;;;;;;;;5055386;28;20429;-75
2022/07/15 04:40:46;;;;;;;10.88;1.80;;;;;;;;;;5055771;28;20024;-75
2022/07/15 04:43:12;;;;;;;10.88;1.80;;;;;;;;;;5055979;28;20057;-74
2022/07/15 04:45:39;;;;;;;14.13;2.17;;;;;;;;;;5054179;28;20029;-75
2022/07/15 04:50:51;;;;;;;12.25;2.00;;;;;;;;;;5055550;28;20083;-76
2022/07/15 04:53:18;;;;;;;14.27;2.33;;;;;;;;;;5055379;28;20029;-76
2022/07/15 04:55:44;;;;;;;10.68;2.53;;;;;;;;;;5054164;28;20028;-76
2022/07/15 04:58:10;;;;;;;15.80;1.85;;;;;;;;;;5052239;28;20021;-77
2022/07/15 05:00:37;;;;;;;13.60;2.28;;;;;;;;;;5054292;28;20359;-75
2022/07/15 05:03:05;;;;;;;12.60;1.90;;;;;;;;;;5054501;28;20021;-78
2022/07/15 05:05:31;;;;;;;11.30;1.60;;;;;;;;;;5055408;28;20031;-79
2022/07/15 05:07:57;;;;;;;9.88;1.52;;;;;;;;;;5056434;28;20393;-78
2022/07/15 05:10:23;;;;;;;9.88;1.73;;;;;;;;;;5057504;28;20021;-78
2022/07/15 05:12:48;;;;;;;12.27;2.00;;;;;;;;;;5071115;28;20036;-78
2022/07/15 05:15:14;;;;;;;8.88;1.55;;;;;;;;;;5071962;28;20508;-77
2022/07/15 05:17:41;;;;;;;11.05;1.90;;;;;;;;;;5061450;28;20383;-78
2022/07/15 05:20:07;;;;;;;10.70;1.90;;;;;;;;;;5055800;28;20546;-78
2022/07/15 05:22:33;;;;;;;14.13;1.50;;;;;;;;;;5053515;28;20100;-78
2022/07/15 05:24:59;;;;;;;8.13;1.80;;;;;;;;;;5054491;28;20033;-76
2022/07/15 05:27:25;;;;;;;12.40;2.05;;;;;;;;;;5055476;28;20035;-78
2022/07/15 05:29:51;;;;;;;11.75;2.10;;;;;;;;;;5055379;28;20078;-78
2022/07/15 05:32:17;;;;;;;10.27;1.60;;;;;;;;;;5055742;28;20036;-76
2022/07/15 05:34:43;;;;;;;14.30;2.38;;;;;;;;;;5063094;28;20029;-77
2022/07/15 05:37:09;;;;;;;9.13;1.50;;;;;;;;;;5054547;28;20100;-76
2022/07/15 05:39:35;;;;;;;9.23;1.55;;;;;;;;;;5054229;28;20386;-77
2022/07/15 05:42:01;;;;;;;6.80;1.40;;;;;;;;;;5057622;28;20021;-78
2022/07/15 05:44:27;;;;;;;10.70;1.52;;;;;;;;;;5057798;28;20032;-77
2022/07/15 05:46:53;;;;;;;11.30;1.40;;;;;;;;;;5053421;28;20389;-78
2022/07/15 05:49:19;;;;;;;8.43;1.67;;;;;;;;;;5058599;28;20490;-78
2022/07/15 05:51:45;;;;;;;10.50;1.83;;;;;;;;;;5058243;28;20075;-82
2022/07/15 05:54:14;;;;;;;8.77;1.33;;;;;;;;;;5053126;28;20029;-77
2022/07/15 05:56:42;;;;;;;10.25;1.58;;;;;;;;;;5054890;28;20037;-76
2022/07/15 05:59:08;;;;;;;8.77;1.20;;;;;;;;;;5055050;28;20021;-77
2022/07/15 06:01:34;;;;;;;6.65;1.17;;;;;;;;;;5056651;28;20028;-74
2022/07/15 06:04:00;;;;;;;8.35;1.40;;;;;;;;;;5057672;28;20021;-74
2022/07/15 06:06:26;;;;;;;4.13;1.10;;;;;;;;;;5057151;28;20033;-76
2022/07/15 06:08:52;;;;;;;7.03;1.50;;;;;;;;;;5055929;28;20453;-78
2022/07/15 06:11:18;;;;;;;8.90;1.55;;;;;;;;;;5054738;28;20049;-78
2022/07/15 06:13:44;;;;;;;9.65;1.30;;;;;;;;;;5055383;28;20036;-77
2022/07/15 06:16:10;;;;;;;13.48;1.75;;;;;;;;;;5054595;28;20149;-77
2022/07/15 06:18:37;;;;;;;9.63;1.30;;;;;;;;;;5056597;28;20029;-78
2022/07/15 06:21:03;;;;;;;6.68;1.60;;;;;;;;;;5053451;28;20108;-77
2022/07/15 06:23:29;;;;;;;14.18;2.03;;;;;;;;;;5058742;28;20507;-78
2022/07/15 06:25:56;;;;;;;12.68;1.63;;;;;;;;;;5060170;28;20031;-77
2022/07/15 06:28:22;;;;;;;8.73;1.60;;;;;;;;;;5059330;28;20021;-76
2022/07/15 06:30:48;;;;;;;14.70;2.00;;;;;;;;;;5062682;28;20028;-76
2022/07/15 06:33:14;;;;;;;7.63;1.30;;;;;;;;;;5059083;28;20025;-76
2022/07/15 06:35:40;;;;;;;8.25;1.73;;;;;;;;;;5059107;28;20036;-76
2022/07/15 06:38:06;;;;;;;8.90;1.70;;;;;;;;;;5061900;28;20025;-77
2022/07/15 06:40:32;;;;;;;9.05;1.67;;;;;;;;;;5059681;28;20029;-78
2022/07/15 06:42:58;;;;;;;8.60;1.58;;;;;;;;;;5054086;28;20025;-78
2022/07/15 06:45:24;;;;;;;11.13;2.30;;;;;;;;;;5054060;28;20108;-78
2022/07/15 06:47:49;;;;;;;8.70;1.48;;;;;;;;;;5054528;28;20029;-77
2022/07/15 06:50:15;;;;;;;7.05;1.45;;;;;;;;;;5054516;28;20386;-77
2022/07/15 06:52:41;;;;;;;4.93;1.25;;;;;;;;;;5055000;28;20029;-77
2022/07/15 06:55:08;;;;;;;6.90;1.30;;;;;;;;;;5058895;28;20061;-76
2022/07/15 06:57:33;;;;;;;6.78;1.40;;;;;;;;;;5055603;28;20032;-77
2022/07/15 07:00:01;;;;;;;4.68;1.17;;;;;;;;;;5056994;28;20025;-77
2022/07/15 07:02:27;;;;;;;10.38;1.67;;;;;;;;;;5058692;28;20059;-78
2022/07/15 07:04:53;;;;;;;10.93;1.70;;;;;;;;;;5057528;28;20025;-77
2022/07/15 07:07:19;;;;;;;9.25;1.42;;;;;;;;;;5060568;28;20032;-77
2022/07/15 07:09:45;;;;;;;8.43;1.67;;;;;;;;;;5059681;28;20037;-75
2022/07/15 07:12:11;;;;;;;11.15;1.85;;;;;;;;;;5057543;28;20021;-77
2022/07/15 07:14:37;;;;;;;12.85;1.77;;;;;;;;;;5055107;28;20116;-76
2022/07/15 07:17:02;;;;;;;8.75;1.55;;;;;;;;;;5053460;28;20025;-77
2022/07/15 07:19:29;;;;;;;11.95;3.28;;;;;;;;;;5053810;28;20425;-75
2022/07/15 07:21:55;;;;;;;13.23;2.45;;;;;;;;;;5052544;28;20568;-75
2022/07/15 07:24:21;;;;;;;10.30;2.03;;;;;;;;;;5054976;28;20017;-77
2022/07/15 07:26:46;;;;;;;10.30;2.22;;;;;;;;;;5055829;28;20021;-76
2022/07/15 07:29:14;;;;;;;6.78;1.40;;;;;;;;;;5055831;28;20035;-74
2022/07/15 07:31:40;;;;;;;9.30;1.40;;;;;;;;;;5055601;28;20044;-74
2022/07/15 07:34:06;;;;;;;14.60;1.50;;;;;;;;;;5056331;28;20021;-76
2022/07/15 07:36:32;;;;;;;6.47;1.10;;;;;;;;;;5055109;28;20056;-75
2022/07/15 07:38:58;;;;;;;5.57;1.17;;;;;;;;;;5055981;28;20029;-76
2022/07/15 07:41:24;;;;;;;9.55;1.42;;;;;;;;;;5055265;28;20497;-75
2022/07/15 07:43:50;;;;;;;9.77;1.33;;;;;;;;;;5058303;28;20028;-75
2022/07/15 07:46:16;;;;;;;7.95;1.35;;;;;;;;;;5064142;28;20074;-74
2022/07/15 07:48:43;;;;;;;7.50;1.23;;;;;;;;;;5055515;28;20053;-75
2022/07/15 07:51:09;;;;;;;11.35;1.48;;;;;;;;;;5055200;28;20035;-77
2022/07/15 07:53:35;;;;;;;11.10;1.15;;;;;;;;;;5055086;28;20151;-77
2022/07/15 07:56:01;;;;;;;11.23;1.67;;;;;;;;;;5055813;28;20108;-75
2022/07/15 07:58:27;;;;;;;5.05;1.02;;;;;;;;;;5056659;28;20032;-79
2022/07/15 08:00:53;;;;;;;8.27;1.20;;;;;;;;;;5056732;28;20092;-76
2022/07/15 08:03:19;;;;;;;7.50;2.03;;;;;;;;;;5058429;28;20432;-75
2022/07/15 08:05:45;;;;;;;4.90;1.10;;;;;;;;;;5058357;28;20033;-76
2022/07/15 08:08:15;;;;;;;13.10;2.40;;;;;;;;;;5056510;28;20025;-75
2022/07/15 08:10:42;;;;;;;7.68;1.38;;;;;;;;;;5056740;28;20029;-76
2022/07/15 08:13:08;;;;;;;6.10;1.30;;;;;;;;;;5056469;28;20039;-78
2022/07/15 08:15:35;;;;;;;7.38;1.77;;;;;;;;;;5055455;28;20111;-79
2022/07/15 08:18:01;;;;;;;6.88;1.38;;;;;;;;;;5065263;28;20024;-76
2022/07/15 08:20:27;;;;;;;5.72;1.13;;;;;;;;;;5056023;28;20528;-76
2022/07/15 08:22:58;;;;;;;9.30;2.13;;;;;;;;;;5056016;28;20021;-77
2022/07/15 08:25:25;;;;;;;7.75;1.65;;;;;;;;;;5055662;28;20071;-76
2022/07/15 08:27:50;;;;;;;7.97;1.70;;;;;;;;;;5055480;28;20031;-79
2022/07/15 08:30:16;;;;;;;10.23;1.92;;;;;;;;;;5056002;28;20502;-76
2022/07/15 08:32:42;;;;;;;6.65;1.52;;;;;;;;;;5054618;28;20032;-76
2022/07/15 08:35:08;;;;;;;3.60;1.10;;;;;;;;;;5053303;28;20683;-77
2022/07/15 08:37:34;;;;;;;8.25;1.90;;;;;;;;;;5054536;28;20082;-76
2022/07/15 08:40:00;;;;;;;13.63;2.13;;;;;;;;;;5055322;28;20104;-76
2022/07/15 08:42:26;;;;;;;8.98;1.60;;;;;;;;;;5054225;28;20467;-78
2022/07/15 08:44:53;;;;;;;7.55;1.17;;;;;;;;;;5056720;28;20048;-76
2022/07/15 08:47:19;;;;;;;7.93;1.20;;;;;;;;;;5053838;28;20433;-77
2022/07/15 08:49:46;;;;;;;7.35;1.20;;;;;;;;;;5054899;28;20079;-77
2022/07/15 08:52:14;;;;;;;11.38;1.30;;;;;;;;;;5056061;28;20025;-76
2022/07/15 08:54:42;;;;;;;9.43;1.20;;;;;;;;;;5055399;28;20375;-76
2022/07/15 08:57:08;;;;;;;6.45;1.00;;;;;;;;;;5055834;28;20032;-78
2022/07/15 08:59:33;;;;;;;7.95;1.30;;;;;;;;;;5062228;28;20036;-75
2022/07/15 09:01:59;;;;;;;4.18;1.17;;;;;;;;;;5059169;28;20025;-77
2022/07/15 09:04:25;;;;;;;8.75;1.10;;;;;;;;;;5054454;28;20057;-75
2022/07/15 09:06:51;;;;;;;12.95;1.42;;;;;;;;;;5053883;28;20040;-76
2022/07/15 09:09:34;;;;;;;12.55;1.58;;;;;;;;;;5057413;28;20043;-73
2022/07/15 09:12:04;;;;;;;8.55;1.30;;;;;;;;;;5054386;28;20024;-76
2022/07/15 09:14:31;;;;;;;7.68;1.20;;;;;;;;;;5056949;28;20029;-75
2022/07/15 09:17:07;;;;;;;5.07;1.00;;;;;;;;;;5055039;28;20028;-76
2022/07/15 09:19:53;;;;;;;5.20;1.33;;;;;;;;;;5053686;28;20489;-76
2022/07/15 09:22:19;;;;;;;4.78;0.90;;;;;;;;;;5053914;28;20067;-77
2022/07/15 09:24:45;;;;;;;7.75;1.05;;;;;;;;;;5054359;28;20036;-77
2022/07/15 09:27:30;;;;;;;5.65;0.93;;;;;;;;;;5053697;28;20031;-76
2022/07/15 09:38:13;;;;;;;9.85;1.50;;;;;;;;;;5059060;28;20052;-76
2022/07/15 09:40:48;;;;;;;5.68;1.17;;;;;;;;;;5061731;28;20039;-78
2022/07/15 09:43:14;;;;;;;8.90;0.98;;;;;;;;;;5061577;28;20020;-74
2022/07/15 09:45:40;;;;;;;10.82;1.50;;;;;;;;;;5054525;28;20086;-74
2022/07/15 09:48:14;;;;;;;4.57;1.00;;;;;;;;;;5058669;28;20108;-78
2022/07/15 09:50:40;;;;;;;9.65;1.20;;;;;;;;;;5057699;28;20044;-77
2022/07/15 09:53:13;;;;;;;6.43;1.83;;;;;;;;;;5059671;28;20438;-77
2022/07/15 09:55:40;;;;;;;4.43;1.30;;;;;;;;;;5057958;28;20538;-77
2022/07/15 09:58:07;;;;;;;4.68;1.35;;;;;;;;;;5058473;28;20025;-77
2022/07/15 10:00:34;;;;;;;12.43;1.38;;;;;;;;;;5059461;28;20100;-77
2022/07/15 10:03:00;;;;;;;6.95;1.50;;;;;;;;;;5060617;28;20470;-77
2022/07/15 10:05:27;;;;;;;8.77;1.83;;;;;;;;;;5060469;28;20501;-78
2022/07/15 10:07:56;;;;;;;6.10;1.15;;;;;;;;;;5059986;28;20032;-77
2022/07/15 10:10:22;;;;;;;5.95;2.20;;;;;;;;;;5057149;28;20032;-77
2022/07/15 10:13:06;;;;;;;3.65;1.00;;;;;;;;;;5057003;28;20033;-77
2022/07/15 10:15:32;;;;;;;5.38;1.52;;;;;;;;;;5054558;28;20108;-78
2022/07/15 10:18:09;;;;;;;8.93;2.00;;;;;;;;;;5072579;28;20035;-78
2022/07/15 10:20:41;;;;;;;6.32;1.55;;;;;;;;;;5076248;28;20020;-77
2022/07/15 10:23:12;;;;;;;8.82;1.27;;;;;;;;;;5057915;28;20079;-76
2022/07/15 10:25:41;;;;;;;5.88;1.10;;;;;;;;;;5054505;28;20017;-77
2022/07/15 10:28:14;;;;;;;8.57;2.03;;;;;;;;;;5054724;28;20082;-75
2022/07/15 10:30:42;;;;;;;16.80;1.20;;;;;;;;;;5055615;28;20032;-78
2022/07/15 10:33:15;;;;;;;8.10;0.75;;;;;;;;;;5055263;28;20021;-78
2022/07/15 10:35:51;;;;;;;5.95;1.10;;;;;;;;;;5053783;28;20129;-76
2022/07/15 10:38:26;;;;;;;7.95;0.95;;;;;;;;;;5053913;28;20025;-75
2022/07/15 10:41:10;;;;;;;6.57;1.10;;;;;;;;;;5061345;28;20021;-76
2022/07/15 10:43:45;;;;;;;5.15;1.15;;;;;;;;;;5060728;28;20048;-76
2022/07/15 10:46:18;;;;;;;4.38;1.05;;;;;;;;;;5059043;28;20040;-77
2022/07/15 10:48:48;;;;;;;6.85;1.00;;;;;;;;;;5056966;28;20048;-77
2022/07/15 10:51:34;;;;;;;5.40;0.73;;;;;;;;;;5057504;28;20029;-76
2022/07/15 10:54:00;;;;;;;3.83;1.02;;;;;;;;;;5061446;28;20037;-78
2022/07/15 10:56:28;;;;;;;13.23;1.33;;;;;;;;;;5061305;28;20644;-78
2022/07/15 10:59:09;;;;;;;6.57;1.15;;;;;;;;;;5058390;28;20544;-77
2022/07/15 11:01:39;;;;;;;2.63;0.85;;;;;;;;;;5058666;28;20078;-78
2022/07/15 11:04:13;;;;;;;5.03;0.70;;;;;;;;;;5061472;28;20021;-77
2022/07/15 11:06:58;;;;;;;3.22;0.80;;;;;;;;;;5059600;28;20033;-77
2022/07/15 11:09:42;;;;;;;11.23;2.38;;;;;;;;;;5059544;28;20036;-77
2022/07/15 11:12:08;;;;;;;7.47;1.42;;;;;;;;;;5061810;28;20635;-77
2022/07/15 11:14:54;;;;;;;7.03;1.20;;;;;;;;;;5066611;28;20040;-75
2022/07/15 11:17:22;;;;;;;5.88;1.23;;;;;;;;;;5071518;28;20049;-75
2022/07/15 11:19:50;;;;;;;8.23;2.00;;;;;;;;;;5072062;28;20063;-77
2022/07/15 11:22:18;;;;;;;6.13;1.27;;;;;;;;;;5059697;28;20028;-76
2022/07/15 11:24:44;;;;;;;5.65;1.13;;;;;;;;;;5061339;28;20037;-79
2022/07/15 11:27:10;;;;;;;9.60;1.33;;;;;;;;;;5059055;28;20029;-77
2022/07/15 11:29:42;;;;;;;6.97;1.50;;;;;;;;;;5061658;28;20025;-77
2022/07/15 11:32:08;;;;;;;9.25;1.27;;;;;;;;;;5062194;28;20021;-78
2022/07/15 11:34:41;;;;;;;7.88;1.00;;;;;;;;;;5062184;28;20719;-76
2022/07/15 11:37:07;;;;;;;6.70;1.42;;;;;;;;;;5059965;28;20063;-77
2022/07/15 11:39:33;;;;;;;7.90;1.10;;;;;;;;;;5060360;28;20013;-77
2022/07/15 11:44:50;;;;;;;5.57;1.15;;;;;;;;;;5060838;28;20724;-79
2022/07/15 11:47:16;;;;;;;9.00;1.40;;;;;;;;;;5060036;28;20078;-77
2022/07/15 11:49:43;;;;;;;8.32;1.20;;;;;;;;;;5063072;28;20055;-78
2022/07/15 11:52:11;;;;;;;6.25;1.42;;;;;;;;;;5057952;28;20382;-78
2022/07/15 11:54:38;;;;;;;5.53;1.05;;;;;;;;;;5058602;28;20033;-76
2022/07/15 11:57:06;;;;;;;7.35;1.00;;;;;;;;;;5060936;28;20074;-77
2022/07/15 11:59:32;;;;;;;9.80;1.30;;;;;;;;;;5058000;28;20062;-77
2022/07/15 12:02:01;;;;;;;7.32;0.80;;;;;;;;;;5059168;28;20017;-77
2022/07/15 12:04:28;;;;;;;7.28;0.85;;;;;;;;;;5058991;28;20021;-77
2022/07/15 12:06:53;;;;;;;8.18;1.30;;;;;;;;;;5070937;28;20033;-76
2022/07/15 12:09:20;;;;;;;7.03;1.20;;;;;;;;;;5058899;28;20050;-77
2022/07/15 12:11:45;;;;;;;6.38;1.50;;;;;;;;;;5066643;28;20037;-77
2022/07/15 12:14:19;;;;;;;8.27;1.27;;;;;;;;;;5061724;28;20086;-78
2022/07/15 12:16:47;;;;;;;16.37;1.07;;;;;;;;;;5059761;28;20053;-77
2022/07/15 12:19:15;;;;;;;6.05;1.30;;;;;;;;;;5061175;28;20051;-77
2022/07/15 12:21:42;;;;;;;5.75;1.48;;;;;;;;;;5059615;28;20028;-77
2022/07/15 12:24:09;;;;;;;6.75;0.90;;;;;;;;;;5058581;28;20437;-77
2022/07/15 12:26:38;;;;;;;7.78;1.02;;;;;;;;;;5084319;28;20021;-77
2022/07/15 12:29:06;;;;;;;7.22;1.23;;;;;;;;;;5086232;28;20094;-77
2022/07/15 12:31:32;;;;;;;6.55;0.70;;;;;;;;;;5085710;28;20047;-78
2022/07/15 12:33:59;;;;;;;6.00;1.00;;;;;;;;;;5084669;28;20028;-80
2022/07/15 12:36:28;;;;;;;8.07;1.10;;;;;;;;;;5078745;28;20087;-77
2022/07/15 12:39:15;;;;;;;8.27;1.40;;;;;;;;;;5082886;28;20032;-77
2022/07/15 12:41:42;;;;;;;4.97;1.08;;;;;;;;;;5081817;28;20135;-77
2022/07/15 12:44:09;;;;;;;3.83;0.95;;;;;;;;;;5079249;28;20032;-77
2022/07/15 12:46:52;;;;;;;3.83;0.95;;;;;;;;;;5079797;28;20036;-75
2022/07/15 12:49:36;;;;;;;4.65;1.45;;;;;;;;;;5079511;28;20051;-79
2022/07/15 12:52:21;;;;;;;9.93;1.20;;;;;;;;;;5077477;28;20472;-77
2022/07/15 12:54:48;;;;;;;6.13;0.95;;;;;;;;;;5074970;28;20496;-76
2022/07/15 12:57:20;;;;;;;8.45;1.42;;;;;;;;;;5077142;28;20012;-76
2022/07/15 13:00:09;;;;;;;6.55;1.75;;;;;;;;;;5077124;28;20026;-75
2022/07/15 13:02:54;;;;;;;8.65;1.52;;;;;;;;;;5070850;28;20476;-80
2022/07/15 13:05:20;;;;;;;6.57;1.48;;;;;;;;;;5074881;28;20029;-76
2022/07/15 13:07:46;;;;;;;6.57;1.20;;;;;;;;;;5076002;28;20024;-78
2022/07/15 13:10:12;;;;;;;4.53;1.27;;;;;;;;;;5081704;28;20035;-77
2022/07/15 13:12:39;;;;;;;6.53;1.42;;;;;;;;;;5075853;28;20493;-77
2022/07/15 13:15:05;;;;;;;11.15;1.75;;;;;;;;;;5074870;28;20029;-77
2022/07/15 13:17:31;;;;;;;5.95;1.77;;;;;;;;;;5074806;28;20016;-75
2022/07/15 13:19:57;;;;;;;7.72;1.13;;;;;;;;;;5076365;28;20649;-81
2022/07/15 13:22:24;;;;;;;6.40;1.45;;;;;;;;;;5063908;28;20497;-76
2022/07/15 13:24:50;;;;;;;6.05;1.40;;;;;;;;;;5055002;28;20025;-78
2022/07/15 13:27:16;;;;;;;4.95;1.10;;;;;;;;;;5055251;28;20025;-76
2022/07/15 13:29:42;;;;;;;6.15;1.23;;;;;;;;;;5061668;28;20029;-77
2022/07/15 13:32:08;;;;;;;8.70;1.00;;;;;;;;;;5060411;28;20082;-76
2022/07/15 13:34:34;;;;;;;6.28;1.23;;;;;;;;;;5067979;28;20033;-76
2022/07/15 13:37:00;;;;;;;8.80;1.40;;;;;;;;;;5067243;28;20096;-78
2022/07/15 13:39:26;;;;;;;6.95;1.40;;;;;;;;;;5060225;28;20047;-77
2022/07/15 13:41:52;;;;;;;7.95;1.20;;;;;;;;;;5060820;28;20036;-78
2022/07/15 13:44:17;;;;;;;5.65;1.00;;;;;;;;;;5059554;28;20033;-77
2022/07/15 13:46:43;;;;;;;3.63;0.82;;;;;;;;;;5056795;28;20382;-77
2022/07/15 13:49:09;;;;;;;2.92;1.40;;;;;;;;;;5056794;28;20085;-78
2022/07/15 13:51:40;;;;;;;3.53;0.85;;;;;;;;;;5059966;28;20024;-77
2022/07/15 13:54:06;;;;;;;4.38;1.10;;;;;;;;;;5057444;28;20033;-77
2022/07/15 13:56:32;;;;;;;7.20;1.60;;;;;;;;;;5058929;28;20039;-77
2022/07/15 13:58:59;;;;;;;4.18;1.20;;;;;;;;;;5056122;28;20025;-77
2022/07/15 14:01:26;;;;;;;6.40;1.70;;;;;;;;;;5059922;28;20787;-77
2022/07/15 14:03:53;;;;;;;6.30;0.93;;;;;;;;;;5060224;28;20021;-78
2022/07/15 14:06:19;;;;;;;7.80;1.02;;;;;;;;;;5060756;28;20036;-77
2022/07/15 14:08:45;;;;;;;6.20;0.98;;;;;;;;;;5059651;28;20029;-76
2022/07/15 14:11:11;;;;;;;8.98;1.13;;;;;;;;;;5058889;28;20033;-77
2022/07/15 14:13:37;;;;;;;9.05;1.20;;;;;;;;;;5060375;28;20035;-78
2022/07/15 14:16:03;;;;;;;5.85;0.90;;;;;;;;;;5060790;28;20024;-77
2022/07/15 14:18:46;;;;;;;9.80;1.55;;;;;;;;;;5058374;28;20025;-77
2022/07/15 14:21:13;;;;;;;8.10;1.40;;;;;;;;;;5060881;28;20017;-77
2022/07/15 14:23:39;;;;;;;6.82;1.85;;;;;;;;;;5065070;28;20670;-78
2022/07/15 14:26:05;;;;;;;11.18;1.30;;;;;;;;;;5057619;28;20025;-79
2022/07/15 14:28:31;;;;;;;4.93;1.05;;;;;;;;;;5057440;28;20025;-78
2022/07/15 14:30:57;;;;;;;5.00;1.10;;;;;;;;;;5059716;28;20040;-78
2022/07/15 14:33:23;;;;;;;8.57;1.50;;;;;;;;;;5064831;28;20049;-77
2022/07/15 14:35:50;;;;;;;7.30;1.50;;;;;;;;;;5070967;28;20044;-77
2022/07/15 14:38:16;;;;;;;5.03;0.98;;;;;;;;;;5072338;28;20033;-77
2022/07/15 14:40:42;;;;;;;6.57;0.93;;;;;;;;;;5072548;28;20025;-76
2022/07/15 14:43:07;;;;;;;2.85;0.70;;;;;;;;;;5073005;28;20036;-75
2022/07/15 14:45:33;;;;;;;9.60;1.08;;;;;;;;;;5069695;28;20032;-76
2022/07/15 14:47:59;;;;;;;8.63;1.63;;;;;;;;;;5070048;28;20029;-78
2022/07/15 14:50:26;;;;;;;6.78;1.30;;;;;;;;;;5070377;28;20025;-77
2022/07/15 14:52:52;;;;;;;8.35;1.63;;;;;;;;;;5067110;28;20039;-76
2022/07/15 14:55:17;;;;;;;7.47;2.15;;;;;;;;;;5068458;28;20029;-77